sensor_id;sensor_type;location;lat;lon;timestamp;P1;durP1;ratioP1;P2;durP2;ratioP2
54241;SDS011;40156;51.080;17.082;2023-05-07T00:02:08;5.90;;;3.95;;
54241;SDS011;40156;51.080;17.082;2023-05-07T00:04:35;7.18;;;3.90;;
54241;SDS011;40156;51.080;17.082;2023-05-07T00:07:03;6.20;;;4.15;;
54241;SDS011;40156;51.080;17.082;2023-05-07T00:09:30;6.53;;;4.05;;
54241;SDS011;40156;51.080;17.082;2023-05-07T00:11:57;6.55;;;4.18;;
54241;SDS011;40156;51.080;17.082;2023-05-07T00:14:26;5.07;;;3.58;;
54241;SDS011;40156;51.080;17.082;2023-05-07T00:16:53;5.18;;;3.97;;
54241;SDS011;40156;51.080;17.082;2023-05-07T00:19:21;6.18;;;4.28;;
54241;SDS011;40156;51.080;17.082;2023-05-07T00:21:48;6.10;;;3.78;;
54241;SDS011;40156;51.080;17.082;2023-05-07T00:24:15;5.15;;;3.55;;
54241;SDS011;40156;51.080;17.082;2023-05-07T00:26:43;8.27;;;4.53;;
54241;SDS011;40156;51.080;17.082;2023-05-07T00:29:10;6.68;;;4.53;;
54241;SDS011;40156;51.080;17.082;2023-05-07T00:31:38;7.80;;;4.40;;
54241;SDS011;40156;51.080;17.082;2023-05-07T00:34:05;6.20;;;3.67;;
54241;SDS011;40156;51.080;17.082;2023-05-07T00:36:33;7.28;;;4.22;;
54241;SDS011;40156;51.080;17.082;2023-05-07T00:39:00;8.93;;;4.35;;
54241;SDS011;40156;51.080;17.082;2023-05-07T00:41:28;6.10;;;3.97;;
54241;SDS011;40156;51.080;17.082;2023-05-07T00:43:55;8.25;;;3.78;;
54241;SDS011;40156;51.080;17.082;2023-05-07T00:46:22;6.30;;;4.10;;
54241;SDS011;40156;51.080;17.082;2023-05-07T00:48:50;7.15;;;4.47;;
54241;SDS011;40156;51.080;17.082;2023-05-07T00:51:18;6.93;;;3.85;;
54241;SDS011;40156;51.080;17.082;2023-05-07T00:53:45;8.23;;;4.20;;
54241;SDS011;40156;51.080;17.082;2023-05-07T00:56:13;6.88;;;4.13;;
54241;SDS011;40156;51.080;17.082;2023-05-07T00:58:41;6.68;;;4.47;;
54241;SDS011;40156;51.080;17.082;2023-05-07T01:01:08;7.72;;;4.63;;
54241;SDS011;40156;51.080;17.082;2023-05-07T01:03:35;7.55;;;4.55;;
54241;SDS011;40156;51.080;17.082;2023-05-07T01:06:04;8.82;;;4.90;;
54241;SDS011;40156;51.080;17.082;2023-05-07T01:08:32;7.47;;;4.50;;
54241;SDS011;40156;51.080;17.082;2023-05-07T01:11:00;6.90;;;3.72;;
54241;SDS011;40156;51.080;17.082;2023-05-07T01:13:27;6.40;;;4.05;;
54241;SDS011;40156;51.080;17.082;2023-05-07T01:15:55;7.22;;;4.50;;
54241;SDS011;40156;51.080;17.082;2023-05-07T01:18:22;5.32;;;4.38;;
54241;SDS011;40156;51.080;17.082;2023-05-07T01:20:50;10.15;;;4.70;;
54241;SDS011;40156;51.080;17.082;2023-05-07T01:23:18;7.90;;;4.90;;
54241;SDS011;40156;51.080;17.082;2023-05-07T01:25:52;10.15;;;4.90;;
54241;SDS011;40156;51.080;17.082;2023-05-07T01:28:19;6.85;;;4.75;;
54241;SDS011;40156;51.080;17.082;2023-05-07T01:30:48;12.57;;;4.80;;
54241;SDS011;40156;51.080;17.082;2023-05-07T01:33:17;7.05;;;4.80;;
54241;SDS011;40156;51.080;17.082;2023-05-07T01:35:46;9.55;;;5.00;;
54241;SDS011;40156;51.080;17.082;2023-05-07T01:38:14;7.32;;;4.53;;
54241;SDS011;40156;51.080;17.082;2023-05-07T01:40:41;6.35;;;4.78;;
54241;SDS011;40156;51.080;17.082;2023-05-07T01:43:09;6.13;;;4.18;;
54241;SDS011;40156;51.080;17.082;2023-05-07T01:45:37;7.03;;;4.30;;
54241;SDS011;40156;51.080;17.082;2023-05-07T01:48:07;7.22;;;4.70;;
54241;SDS011;40156;51.080;17.082;2023-05-07T01:50:34;7.38;;;4.68;;
54241;SDS011;40156;51.080;17.082;2023-05-07T01:53:02;8.90;;;5.20;;
54241;SDS011;40156;51.080;17.082;2023-05-07T01:55:29;9.05;;;5.45;;
54241;SDS011;40156;51.080;17.082;2023-05-07T01:57:57;7.10;;;4.80;;
54241;SDS011;40156;51.080;17.082;2023-05-07T02:00:24;11.05;;;4.43;;
54241;SDS011;40156;51.080;17.082;2023-05-07T02:02:52;7.25;;;4.70;;
54241;SDS011;40156;51.080;17.082;2023-05-07T02:05:19;6.72;;;4.30;;
54241;SDS011;40156;51.080;17.082;2023-05-07T02:07:47;8.35;;;5.22;;
54241;SDS011;40156;51.080;17.082;2023-05-07T02:10:14;7.57;;;3.92;;
54241;SDS011;40156;51.080;17.082;2023-05-07T02:12:41;5.78;;;4.18;;
54241;SDS011;40156;51.080;17.082;2023-05-07T02:15:09;5.93;;;3.90;;
54241;SDS011;40156;51.080;17.082;2023-05-07T02:17:39;5.00;;;3.78;;
54241;SDS011;40156;51.080;17.082;2023-05-07T02:20:07;7.57;;;4.55;;
54241;SDS011;40156;51.080;17.082;2023-05-07T02:22:34;6.45;;;3.65;;
54241;SDS011;40156;51.080;17.082;2023-05-07T02:25:03;6.97;;;4.10;;
54241;SDS011;40156;51.080;17.082;2023-05-07T02:27:30;6.70;;;4.25;;
54241;SDS011;40156;51.080;17.082;2023-05-07T02:29:58;8.07;;;3.97;;
54241;SDS011;40156;51.080;17.082;2023-05-07T02:32:25;7.25;;;4.60;;
54241;SDS011;40156;51.080;17.082;2023-05-07T02:34:53;6.95;;;4.22;;
54241;SDS011;40156;51.080;17.082;2023-05-07T02:37:20;7.38;;;4.93;;
54241;SDS011;40156;51.080;17.082;2023-05-07T02:39:47;9.15;;;4.50;;
54241;SDS011;40156;51.080;17.082;2023-05-07T02:42:14;6.50;;;3.97;;
54241;SDS011;40156;51.080;17.082;2023-05-07T02:44:42;5.70;;;4.47;;
54241;SDS011;40156;51.080;17.082;2023-05-07T02:47:09;6.63;;;4.00;;
54241;SDS011;40156;51.080;17.082;2023-05-07T02:49:37;6.60;;;4.10;;
54241;SDS011;40156;51.080;17.082;2023-05-07T02:52:04;6.60;;;4.72;;
54241;SDS011;40156;51.080;17.082;2023-05-07T02:54:32;6.85;;;4.55;;
54241;SDS011;40156;51.080;17.082;2023-05-07T02:57:00;6.05;;;3.90;;
54241;SDS011;40156;51.080;17.082;2023-05-07T02:59:27;6.00;;;4.00;;
54241;SDS011;40156;51.080;17.082;2023-05-07T03:01:55;7.78;;;4.53;;
54241;SDS011;40156;51.080;17.082;2023-05-07T03:04:41;7.55;;;4.40;;
54241;SDS011;40156;51.080;17.082;2023-05-07T03:07:27;6.53;;;4.30;;
54241;SDS011;40156;51.080;17.082;2023-05-07T03:10:15;5.80;;;4.05;;
54241;SDS011;40156;51.080;17.082;2023-05-07T03:13:03;8.45;;;4.20;;
54241;SDS011;40156;51.080;17.082;2023-05-07T03:15:51;10.32;;;4.95;;
54241;SDS011;40156;51.080;17.082;2023-05-07T03:18:38;5.93;;;3.55;;
54241;SDS011;40156;51.080;17.082;2023-05-07T03:21:26;7.38;;;4.40;;
54241;SDS011;40156;51.080;17.082;2023-05-07T03:23:54;9.15;;;4.30;;
54241;SDS011;40156;51.080;17.082;2023-05-07T03:26:22;12.77;;;4.55;;
54241;SDS011;40156;51.080;17.082;2023-05-07T03:28:49;8.02;;;3.90;;
54241;SDS011;40156;51.080;17.082;2023-05-07T03:31:16;5.93;;;3.75;;
54241;SDS011;40156;51.080;17.082;2023-05-07T03:33:53;7.05;;;3.40;;
54241;SDS011;40156;51.080;17.082;2023-05-07T03:36:21;8.18;;;4.28;;
54241;SDS011;40156;51.080;17.082;2023-05-07T03:38:49;5.25;;;3.97;;
54241;SDS011;40156;51.080;17.082;2023-05-07T03:41:16;5.45;;;3.85;;
54241;SDS011;40156;51.080;17.082;2023-05-07T03:43:44;4.82;;;3.25;;
54241;SDS011;40156;51.080;17.082;2023-05-07T03:46:11;4.63;;;3.33;;
54241;SDS011;40156;51.080;17.082;2023-05-07T03:48:38;5.07;;;3.25;;
54241;SDS011;40156;51.080;17.082;2023-05-07T03:51:06;6.53;;;4.05;;
54241;SDS011;40156;51.080;17.082;2023-05-07T03:53:33;5.55;;;3.75;;
54241;SDS011;40156;51.080;17.082;2023-05-07T03:56:01;9.95;;;3.00;;
54241;SDS011;40156;51.080;17.082;2023-05-07T03:58:28;4.32;;;3.28;;
54241;SDS011;40156;51.080;17.082;2023-05-07T04:00:56;5.75;;;3.42;;
54241;SDS011;40156;51.080;17.082;2023-05-07T04:03:23;6.60;;;3.35;;
54241;SDS011;40156;51.080;17.082;2023-05-07T04:05:51;5.55;;;3.67;;
54241;SDS011;40156;51.080;17.082;2023-05-07T04:08:18;5.95;;;3.53;;
54241;SDS011;40156;51.080;17.082;2023-05-07T04:10:56;4.35;;;2.90;;
54241;SDS011;40156;51.080;17.082;2023-05-07T04:13:24;5.30;;;3.30;;
54241;SDS011;40156;51.080;17.082;2023-05-07T04:15:52;7.70;;;3.30;;
54241;SDS011;40156;51.080;17.082;2023-05-07T04:18:19;4.72;;;3.38;;
54241;SDS011;40156;51.080;17.082;2023-05-07T04:20:47;5.43;;;3.28;;
54241;SDS011;40156;51.080;17.082;2023-05-07T04:23:15;4.82;;;3.08;;
54241;SDS011;40156;51.080;17.082;2023-05-07T04:25:42;5.25;;;3.45;;
54241;SDS011;40156;51.080;17.082;2023-05-07T04:28:10;6.38;;;3.53;;
54241;SDS011;40156;51.080;17.082;2023-05-07T04:30:37;3.90;;;2.63;;
54241;SDS011;40156;51.080;17.082;2023-05-07T04:33:05;4.00;;;2.97;;
54241;SDS011;40156;51.080;17.082;2023-05-07T04:35:32;5.53;;;3.50;;
54241;SDS011;40156;51.080;17.082;2023-05-07T04:37:59;5.80;;;3.38;;
54241;SDS011;40156;51.080;17.082;2023-05-07T04:40:27;4.88;;;3.50;;
54241;SDS011;40156;51.080;17.082;2023-05-07T04:42:54;5.45;;;3.28;;
54241;SDS011;40156;51.080;17.082;2023-05-07T04:45:22;5.13;;;3.80;;
54241;SDS011;40156;51.080;17.082;2023-05-07T04:47:49;5.53;;;3.58;;
54241;SDS011;40156;51.080;17.082;2023-05-07T04:50:17;7.93;;;3.47;;
54241;SDS011;40156;51.080;17.082;2023-05-07T04:52:44;6.50;;;3.50;;
54241;SDS011;40156;51.080;17.082;2023-05-07T04:55:12;5.20;;;3.72;;
54241;SDS011;40156;51.080;17.082;2023-05-07T04:57:39;4.88;;;3.60;;
54241;SDS011;40156;51.080;17.082;2023-05-07T05:00:07;4.18;;;2.75;;
54241;SDS011;40156;51.080;17.082;2023-05-07T05:02:34;4.38;;;2.92;;
54241;SDS011;40156;51.080;17.082;2023-05-07T05:05:02;4.03;;;2.78;;
54241;SDS011;40156;51.080;17.082;2023-05-07T05:07:29;4.10;;;2.70;;
54241;SDS011;40156;51.080;17.082;2023-05-07T05:09:57;3.80;;;2.53;;
54241;SDS011;40156;51.080;17.082;2023-05-07T05:12:24;4.93;;;3.15;;
54241;SDS011;40156;51.080;17.082;2023-05-07T05:14:52;3.10;;;2.17;;
54241;SDS011;40156;51.080;17.082;2023-05-07T05:17:19;5.38;;;3.05;;
54241;SDS011;40156;51.080;17.082;2023-05-07T05:19:46;5.50;;;3.10;;
54241;SDS011;40156;51.080;17.082;2023-05-07T05:22:14;4.45;;;2.92;;
54241;SDS011;40156;51.080;17.082;2023-05-07T05:24:41;6.50;;;2.72;;
54241;SDS011;40156;51.080;17.082;2023-05-07T05:27:08;4.53;;;3.53;;
54241;SDS011;40156;51.080;17.082;2023-05-07T05:29:36;4.53;;;3.30;;
54241;SDS011;40156;51.080;17.082;2023-05-07T05:32:03;4.70;;;3.47;;
54241;SDS011;40156;51.080;17.082;2023-05-07T05:34:31;6.00;;;3.78;;
54241;SDS011;40156;51.080;17.082;2023-05-07T05:36:58;5.07;;;3.70;;
54241;SDS011;40156;51.080;17.082;2023-05-07T05:39:26;4.05;;;3.20;;
54241;SDS011;40156;51.080;17.082;2023-05-07T05:41:53;5.60;;;3.70;;
54241;SDS011;40156;51.080;17.082;2023-05-07T05:44:21;6.30;;;3.95;;
54241;SDS011;40156;51.080;17.082;2023-05-07T05:46:48;5.38;;;3.88;;
54241;SDS011;40156;51.080;17.082;2023-05-07T05:49:15;5.25;;;3.72;;
54241;SDS011;40156;51.080;17.082;2023-05-07T05:51:43;4.90;;;3.50;;
54241;SDS011;40156;51.080;17.082;2023-05-07T05:54:10;6.80;;;3.30;;
54241;SDS011;40156;51.080;17.082;2023-05-07T05:56:37;5.20;;;3.47;;
54241;SDS011;40156;51.080;17.082;2023-05-07T05:59:05;3.67;;;2.60;;
54241;SDS011;40156;51.080;17.082;2023-05-07T06:01:32;6.05;;;3.20;;
54241;SDS011;40156;51.080;17.082;2023-05-07T06:04:00;5.68;;;3.67;;
54241;SDS011;40156;51.080;17.082;2023-05-07T06:06:27;5.72;;;3.38;;
54241;SDS011;40156;51.080;17.082;2023-05-07T06:08:55;4.25;;;3.00;;
54241;SDS011;40156;51.080;17.082;2023-05-07T06:11:22;4.65;;;2.92;;
54241;SDS011;40156;51.080;17.082;2023-05-07T06:13:49;3.95;;;2.75;;
54241;SDS011;40156;51.080;17.082;2023-05-07T06:16:17;4.20;;;3.30;;
54241;SDS011;40156;51.080;17.082;2023-05-07T06:18:44;5.22;;;3.25;;
54241;SDS011;40156;51.080;17.082;2023-05-07T06:21:13;5.65;;;3.00;;
54241;SDS011;40156;51.080;17.082;2023-05-07T06:23:40;5.13;;;3.10;;
54241;SDS011;40156;51.080;17.082;2023-05-07T06:26:08;6.28;;;2.90;;
54241;SDS011;40156;51.080;17.082;2023-05-07T06:28:35;2.60;;;2.10;;
54241;SDS011;40156;51.080;17.082;2023-05-07T06:31:12;2.72;;;2.20;;
54241;SDS011;40156;51.080;17.082;2023-05-07T06:33:40;3.80;;;2.55;;
54241;SDS011;40156;51.080;17.082;2023-05-07T06:36:07;4.53;;;2.47;;
54241;SDS011;40156;51.080;17.082;2023-05-07T06:38:35;3.75;;;2.65;;
54241;SDS011;40156;51.080;17.082;2023-05-07T06:41:03;3.35;;;2.85;;
54241;SDS011;40156;51.080;17.082;2023-05-07T06:43:30;3.58;;;2.30;;
54241;SDS011;40156;51.080;17.082;2023-05-07T06:45:57;4.50;;;2.20;;
54241;SDS011;40156;51.080;17.082;2023-05-07T06:48:25;3.53;;;2.88;;
54241;SDS011;40156;51.080;17.082;2023-05-07T06:50:52;4.07;;;2.92;;
54241;SDS011;40156;51.080;17.082;2023-05-07T06:53:20;4.38;;;3.20;;
54241;SDS011;40156;51.080;17.082;2023-05-07T06:55:47;5.20;;;3.50;;
54241;SDS011;40156;51.080;17.082;2023-05-07T06:58:14;4.45;;;3.17;;
54241;SDS011;40156;51.080;17.082;2023-05-07T07:00:42;4.78;;;2.72;;
54241;SDS011;40156;51.080;17.082;2023-05-07T07:03:09;3.40;;;2.40;;
54241;SDS011;40156;51.080;17.082;2023-05-07T07:05:37;3.03;;;2.50;;
54241;SDS011;40156;51.080;17.082;2023-05-07T07:08:04;3.85;;;2.80;;
54241;SDS011;40156;51.080;17.082;2023-05-07T07:10:31;4.72;;;2.45;;
54241;SDS011;40156;51.080;17.082;2023-05-07T07:12:59;3.25;;;2.08;;
54241;SDS011;40156;51.080;17.082;2023-05-07T07:15:26;2.85;;;2.38;;
54241;SDS011;40156;51.080;17.082;2023-05-07T07:17:54;4.00;;;2.70;;
54241;SDS011;40156;51.080;17.082;2023-05-07T07:20:21;3.00;;;2.65;;
54241;SDS011;40156;51.080;17.082;2023-05-07T07:22:49;2.67;;;2.00;;
54241;SDS011;40156;51.080;17.082;2023-05-07T07:25:16;3.28;;;2.40;;
54241;SDS011;40156;51.080;17.082;2023-05-07T07:27:44;3.70;;;2.33;;
54241;SDS011;40156;51.080;17.082;2023-05-07T07:30:11;3.65;;;2.40;;
54241;SDS011;40156;51.080;17.082;2023-05-07T07:32:39;3.63;;;2.70;;
54241;SDS011;40156;51.080;17.082;2023-05-07T07:35:06;3.03;;;2.22;;
54241;SDS011;40156;51.080;17.082;2023-05-07T07:37:34;2.72;;;2.00;;
54241;SDS011;40156;51.080;17.082;2023-05-07T07:40:01;3.13;;;2.08;;
54241;SDS011;40156;51.080;17.082;2023-05-07T07:42:29;3.17;;;2.45;;
54241;SDS011;40156;51.080;17.082;2023-05-07T07:44:56;2.42;;;2.22;;
54241;SDS011;40156;51.080;17.082;2023-05-07T07:47:24;6.20;;;2.47;;
54241;SDS011;40156;51.080;17.082;2023-05-07T07:49:51;3.40;;;2.22;;
54241;SDS011;40156;51.080;17.082;2023-05-07T07:52:18;4.03;;;3.00;;
54241;SDS011;40156;51.080;17.082;2023-05-07T07:54:46;3.72;;;2.50;;
54241;SDS011;40156;51.080;17.082;2023-05-07T07:57:14;3.70;;;2.85;;
54241;SDS011;40156;51.080;17.082;2023-05-07T07:59:41;3.78;;;2.95;;
54241;SDS011;40156;51.080;17.082;2023-05-07T08:02:08;4.32;;;2.88;;
54241;SDS011;40156;51.080;17.082;2023-05-07T08:04:36;4.05;;;2.70;;
54241;SDS011;40156;51.080;17.082;2023-05-07T08:07:04;3.78;;;2.80;;
54241;SDS011;40156;51.080;17.082;2023-05-07T08:09:31;4.65;;;3.17;;
54241;SDS011;40156;51.080;17.082;2023-05-07T08:12:01;4.45;;;3.10;;
54241;SDS011;40156;51.080;17.082;2023-05-07T08:14:28;5.05;;;3.42;;
54241;SDS011;40156;51.080;17.082;2023-05-07T08:16:56;4.47;;;3.33;;
54241;SDS011;40156;51.080;17.082;2023-05-07T08:19:23;4.75;;;3.22;;
54241;SDS011;40156;51.080;17.082;2023-05-07T08:21:51;4.47;;;3.28;;
54241;SDS011;40156;51.080;17.082;2023-05-07T08:24:18;6.75;;;3.75;;
54241;SDS011;40156;51.080;17.082;2023-05-07T08:26:46;5.40;;;3.13;;
54241;SDS011;40156;51.080;17.082;2023-05-07T08:29:14;5.10;;;3.60;;
54241;SDS011;40156;51.080;17.082;2023-05-07T08:31:41;6.07;;;3.88;;
54241;SDS011;40156;51.080;17.082;2023-05-07T08:34:08;5.35;;;3.50;;
54241;SDS011;40156;51.080;17.082;2023-05-07T08:36:36;7.03;;;3.63;;
54241;SDS011;40156;51.080;17.082;2023-05-07T08:39:04;7.20;;;3.17;;
54241;SDS011;40156;51.080;17.082;2023-05-07T08:41:31;4.40;;;3.40;;
54241;SDS011;40156;51.080;17.082;2023-05-07T08:43:59;5.63;;;3.25;;
54241;SDS011;40156;51.080;17.082;2023-05-07T08:46:31;5.57;;;3.55;;
54241;SDS011;40156;51.080;17.082;2023-05-07T08:48:58;4.75;;;3.22;;
54241;SDS011;40156;51.080;17.082;2023-05-07T08:51:26;5.50;;;3.60;;
54241;SDS011;40156;51.080;17.082;2023-05-07T08:53:53;6.35;;;3.97;;
54241;SDS011;40156;51.080;17.082;2023-05-07T08:56:21;5.65;;;3.60;;
54241;SDS011;40156;51.080;17.082;2023-05-07T08:58:48;5.88;;;4.18;;
54241;SDS011;40156;51.080;17.082;2023-05-07T09:01:16;8.77;;;4.10;;
54241;SDS011;40156;51.080;17.082;2023-05-07T09:03:44;5.13;;;3.83;;
54241;SDS011;40156;51.080;17.082;2023-05-07T09:06:12;5.70;;;4.38;;
54241;SDS011;40156;51.080;17.082;2023-05-07T09:08:39;6.68;;;4.68;;
54241;SDS011;40156;51.080;17.082;2023-05-07T09:11:07;4.70;;;3.35;;
54241;SDS011;40156;51.080;17.082;2023-05-07T09:13:34;5.13;;;3.30;;
54241;SDS011;40156;51.080;17.082;2023-05-07T09:16:11;6.28;;;3.70;;
54241;SDS011;40156;51.080;17.082;2023-05-07T09:18:42;4.97;;;3.55;;
54241;SDS011;40156;51.080;17.082;2023-05-07T09:21:10;5.03;;;3.20;;
54241;SDS011;40156;51.080;17.082;2023-05-07T09:23:37;4.65;;;3.38;;
54241;SDS011;40156;51.080;17.082;2023-05-07T09:26:05;5.50;;;3.22;;
54241;SDS011;40156;51.080;17.082;2023-05-07T09:28:37;4.05;;;2.50;;
54241;SDS011;40156;51.080;17.082;2023-05-07T09:31:05;3.63;;;2.55;;
54241;SDS011;40156;51.080;17.082;2023-05-07T09:33:32;4.85;;;3.17;;
54241;SDS011;40156;51.080;17.082;2023-05-07T09:36:08;4.28;;;3.00;;
54241;SDS011;40156;51.080;17.082;2023-05-07T09:38:46;4.35;;;3.40;;
54241;SDS011;40156;51.080;17.082;2023-05-07T09:41:14;4.88;;;3.78;;
54241;SDS011;40156;51.080;17.082;2023-05-07T09:43:41;4.82;;;3.70;;
54241;SDS011;40156;51.080;17.082;2023-05-07T09:46:11;6.93;;;3.80;;
54241;SDS011;40156;51.080;17.082;2023-05-07T09:48:39;6.88;;;3.55;;
54241;SDS011;40156;51.080;17.082;2023-05-07T09:53:44;8.55;;;5.22;;
54241;SDS011;40156;51.080;17.082;2023-05-07T09:56:13;5.80;;;4.03;;
54241;SDS011;40156;51.080;17.082;2023-05-07T09:58:40;5.18;;;3.95;;
54241;SDS011;40156;51.080;17.082;2023-05-07T10:01:13;5.75;;;3.70;;
54241;SDS011;40156;51.080;17.082;2023-05-07T10:03:43;7.57;;;3.97;;
54241;SDS011;40156;51.080;17.082;2023-05-07T10:06:29;5.65;;;3.47;;
54241;SDS011;40156;51.080;17.082;2023-05-07T10:08:59;3.75;;;3.33;;
54241;SDS011;40156;51.080;17.082;2023-05-07T10:11:26;4.60;;;3.17;;
54241;SDS011;40156;51.080;17.082;2023-05-07T10:13:54;7.07;;;3.67;;
54241;SDS011;40156;51.080;17.082;2023-05-07T10:16:23;4.57;;;3.50;;
54241;SDS011;40156;51.080;17.082;2023-05-07T10:18:52;4.93;;;3.17;;
54241;SDS011;40156;51.080;17.082;2023-05-07T10:21:23;3.90;;;2.67;;
54241;SDS011;40156;51.080;17.082;2023-05-07T10:23:53;4.78;;;2.92;;
54241;SDS011;40156;51.080;17.082;2023-05-07T10:26:24;3.65;;;2.55;;
54241;SDS011;40156;51.080;17.082;2023-05-07T10:28:56;3.85;;;2.88;;
54241;SDS011;40156;51.080;17.082;2023-05-07T10:34:06;3.97;;;2.92;;
54241;SDS011;40156;51.080;17.082;2023-05-07T10:36:35;3.88;;;2.85;;
54241;SDS011;40156;51.080;17.082;2023-05-07T10:39:05;5.25;;;2.80;;
54241;SDS011;40156;51.080;17.082;2023-05-07T10:41:47;5.57;;;2.90;;
54241;SDS011;40156;51.080;17.082;2023-05-07T10:47:23;3.28;;;2.42;;
54241;SDS011;40156;51.080;17.082;2023-05-07T10:53:35;4.00;;;2.70;;
54241;SDS011;40156;51.080;17.082;2023-05-07T11:01:21;3.88;;;2.80;;
54241;SDS011;40156;51.080;17.082;2023-05-07T11:04:16;3.55;;;2.50;;
54241;SDS011;40156;51.080;17.082;2023-05-07T11:15:07;6.22;;;3.60;;
54241;SDS011;40156;51.080;17.082;2023-05-07T11:26:04;5.15;;;3.20;;
54241;SDS011;40156;51.080;17.082;2023-05-07T11:28:44;5.55;;;2.70;;
54241;SDS011;40156;51.080;17.082;2023-05-07T11:31:20;5.10;;;2.80;;
54241;SDS011;40156;51.080;17.082;2023-05-07T11:33:52;4.90;;;3.08;;
54241;SDS011;40156;51.080;17.082;2023-05-07T11:36:44;3.55;;;2.50;;
54241;SDS011;40156;51.080;17.082;2023-05-07T11:39:29;3.30;;;2.55;;
54241;SDS011;40156;51.080;17.082;2023-05-07T11:42:07;5.63;;;2.90;;
54241;SDS011;40156;51.080;17.082;2023-05-07T11:51:50;2.92;;;2.40;;
54241;SDS011;40156;51.080;17.082;2023-05-07T11:54:56;3.72;;;2.40;;
54241;SDS011;40156;51.080;17.082;2023-05-07T11:57:30;3.67;;;2.60;;
54241;SDS011;40156;51.080;17.082;2023-05-07T12:00:03;2.85;;;2.33;;
54241;SDS011;40156;51.080;17.082;2023-05-07T12:02:37;4.30;;;2.58;;
54241;SDS011;40156;51.080;17.082;2023-05-07T12:05:05;3.63;;;2.78;;
54241;SDS011;40156;51.080;17.082;2023-05-07T12:07:34;6.90;;;2.83;;
54241;SDS011;40156;51.080;17.082;2023-05-07T12:10:28;4.38;;;2.88;;
54241;SDS011;40156;51.080;17.082;2023-05-07T12:13:01;2.67;;;2.15;;
54241;SDS011;40156;51.080;17.082;2023-05-07T12:15:34;4.00;;;2.60;;
54241;SDS011;40156;51.080;17.082;2023-05-07T12:18:05;6.65;;;2.40;;
54241;SDS011;40156;51.080;17.082;2023-05-07T12:20:33;4.30;;;2.75;;
54241;SDS011;40156;51.080;17.082;2023-05-07T12:23:15;4.20;;;3.03;;
54241;SDS011;40156;51.080;17.082;2023-05-07T12:26:00;3.08;;;2.50;;
54241;SDS011;40156;51.080;17.082;2023-05-07T12:28:35;6.40;;;3.60;;
54241;SDS011;40156;51.080;17.082;2023-05-07T12:31:15;4.00;;;3.17;;
54241;SDS011;40156;51.080;17.082;2023-05-07T12:33:42;5.90;;;2.90;;
54241;SDS011;40156;51.080;17.082;2023-05-07T12:39:14;5.63;;;3.40;;
54241;SDS011;40156;51.080;17.082;2023-05-07T12:41:54;5.80;;;3.20;;
54241;SDS011;40156;51.080;17.082;2023-05-07T12:44:23;4.43;;;3.13;;
54241;SDS011;40156;51.080;17.082;2023-05-07T12:46:50;4.50;;;3.50;;
54241;SDS011;40156;51.080;17.082;2023-05-07T12:49:18;5.63;;;3.47;;
54241;SDS011;40156;51.080;17.082;2023-05-07T12:51:48;5.68;;;3.58;;
54241;SDS011;40156;51.080;17.082;2023-05-07T12:54:31;5.13;;;2.80;;
54241;SDS011;40156;51.080;17.082;2023-05-07T12:59:36;5.00;;;2.70;;
54241;SDS011;40156;51.080;17.082;2023-05-07T13:02:05;5.05;;;2.80;;
54241;SDS011;40156;51.080;17.082;2023-05-07T13:04:35;3.85;;;2.75;;
54241;SDS011;40156;51.080;17.082;2023-05-07T13:07:03;5.40;;;3.83;;
54241;SDS011;40156;51.080;17.082;2023-05-07T13:09:44;3.07;;;2.73;;
54241;SDS011;40156;51.080;17.082;2023-05-07T13:12:12;5.90;;;3.35;;
54241;SDS011;40156;51.080;17.082;2023-05-07T13:14:40;4.80;;;3.30;;
54241;SDS011;40156;51.080;17.082;2023-05-07T13:17:13;4.00;;;2.97;;
54241;SDS011;40156;51.080;17.082;2023-05-07T13:19:40;4.38;;;3.33;;
54241;SDS011;40156;51.080;17.082;2023-05-07T13:22:08;5.85;;;3.38;;
54241;SDS011;40156;51.080;17.082;2023-05-07T13:24:37;3.53;;;3.10;;
54241;SDS011;40156;51.080;17.082;2023-05-07T13:27:08;5.13;;;3.78;;
54241;SDS011;40156;51.080;17.082;2023-05-07T13:29:36;4.63;;;3.15;;
54241;SDS011;40156;51.080;17.082;2023-05-07T13:32:14;4.22;;;2.92;;
54241;SDS011;40156;51.080;17.082;2023-05-07T13:37:52;5.47;;;4.75;;
54241;SDS011;40156;51.080;17.082;2023-05-07T13:40:22;5.22;;;2.92;;
54241;SDS011;40156;51.080;17.082;2023-05-07T13:42:50;4.65;;;2.80;;
54241;SDS011;40156;51.080;17.082;2023-05-07T13:45:18;5.07;;;2.78;;
54241;SDS011;40156;51.080;17.082;2023-05-07T13:47:45;4.43;;;2.90;;
54241;SDS011;40156;51.080;17.082;2023-05-07T13:50:16;6.22;;;3.47;;
54241;SDS011;40156;51.080;17.082;2023-05-07T13:52:44;5.65;;;3.67;;
54241;SDS011;40156;51.080;17.082;2023-05-07T13:55:13;6.28;;;5.00;;
54241;SDS011;40156;51.080;17.082;2023-05-07T13:57:40;4.45;;;2.80;;
54241;SDS011;40156;51.080;17.082;2023-05-07T14:00:08;3.22;;;2.60;;
54241;SDS011;40156;51.080;17.082;2023-05-07T14:02:36;4.32;;;2.85;;
54241;SDS011;40156;51.080;17.082;2023-05-07T14:05:07;4.80;;;2.75;;
54241;SDS011;40156;51.080;17.082;2023-05-07T14:07:35;7.57;;;3.25;;
54241;SDS011;40156;51.080;17.082;2023-05-07T14:10:03;3.50;;;2.53;;
54241;SDS011;40156;51.080;17.082;2023-05-07T14:12:31;5.28;;;3.22;;
54241;SDS011;40156;51.080;17.082;2023-05-07T14:14:58;8.65;;;5.18;;
54241;SDS011;40156;51.080;17.082;2023-05-07T14:17:26;6.10;;;3.88;;
54241;SDS011;40156;51.080;17.082;2023-05-07T14:20:02;4.38;;;2.60;;
54241;SDS011;40156;51.080;17.082;2023-05-07T14:22:30;4.45;;;3.05;;
54241;SDS011;40156;51.080;17.082;2023-05-07T14:25:06;3.50;;;2.47;;
54241;SDS011;40156;51.080;17.082;2023-05-07T14:27:33;4.57;;;2.60;;
54241;SDS011;40156;51.080;17.082;2023-05-07T14:30:01;4.15;;;3.15;;
54241;SDS011;40156;51.080;17.082;2023-05-07T14:32:30;5.22;;;2.90;;
54241;SDS011;40156;51.080;17.082;2023-05-07T14:34:58;4.25;;;2.90;;
54241;SDS011;40156;51.080;17.082;2023-05-07T14:37:34;4.15;;;2.80;;
54241;SDS011;40156;51.080;17.082;2023-05-07T14:40:02;3.75;;;3.10;;
54241;SDS011;40156;51.080;17.082;2023-05-07T14:42:32;4.20;;;2.95;;
54241;SDS011;40156;51.080;17.082;2023-05-07T14:45:00;3.78;;;2.83;;
54241;SDS011;40156;51.080;17.082;2023-05-07T14:47:27;4.47;;;2.97;;
54241;SDS011;40156;51.080;17.082;2023-05-07T14:49:55;5.20;;;3.10;;
54241;SDS011;40156;51.080;17.082;2023-05-07T14:52:22;8.57;;;3.60;;
54241;SDS011;40156;51.080;17.082;2023-05-07T14:54:50;6.03;;;3.08;;
54241;SDS011;40156;51.080;17.082;2023-05-07T14:57:19;4.88;;;3.08;;
54241;SDS011;40156;51.080;17.082;2023-05-07T14:59:47;4.82;;;2.70;;
54241;SDS011;40156;51.080;17.082;2023-05-07T15:02:17;6.97;;;3.13;;
54241;SDS011;40156;51.080;17.082;2023-05-07T15:04:50;6.50;;;3.03;;
54241;SDS011;40156;51.080;17.082;2023-05-07T15:07:19;7.13;;;3.72;;
54241;SDS011;40156;51.080;17.082;2023-05-07T15:09:46;5.65;;;2.92;;
54241;SDS011;40156;51.080;17.082;2023-05-07T15:12:14;4.65;;;3.97;;
54241;SDS011;40156;51.080;17.082;2023-05-07T15:14:44;3.90;;;3.22;;
54241;SDS011;40156;51.080;17.082;2023-05-07T15:17:12;4.68;;;3.13;;
54241;SDS011;40156;51.080;17.082;2023-05-07T15:19:41;4.85;;;3.10;;
54241;SDS011;40156;51.080;17.082;2023-05-07T15:22:10;3.15;;;2.78;;
54241;SDS011;40156;51.080;17.082;2023-05-07T15:24:38;3.67;;;2.97;;
54241;SDS011;40156;51.080;17.082;2023-05-07T15:27:05;5.32;;;3.75;;
54241;SDS011;40156;51.080;17.082;2023-05-07T15:29:33;6.32;;;3.83;;
54241;SDS011;40156;51.080;17.082;2023-05-07T15:32:00;5.70;;;3.58;;
54241;SDS011;40156;51.080;17.082;2023-05-07T15:34:31;5.35;;;3.78;;
54241;SDS011;40156;51.080;17.082;2023-05-07T15:36:58;5.63;;;3.83;;